createdAt,value
2018-06-23T00:02:15.075Z,98796.41
2018-06-23T00:04:46.761Z,98795.41
2018-06-23T00:07:17.857Z,98799.22
2018-06-23T00:09:49.512Z,98802.05
2018-06-23T00:12:21.676Z,98803.70
2018-06-23T00:14:52.711Z,98811.66
2018-06-23T00:17:23.717Z,98812.31
2018-06-23T00:19:54.674Z,98805.69
2018-06-23T00:22:25.837Z,98810.68
2018-06-23T00:24:56.827Z,98812.01
2018-06-23T00:27:28.725Z,98813.33
2018-06-23T00:30:00.480Z,98814.66
2018-06-23T00:32:31.729Z,98815.31
2018-06-23T00:35:02.860Z,98818.14
2018-06-23T00:37:33.790Z,98832.38
2018-06-23T00:40:04.817Z,98827.56
2018-06-23T00:42:35.279Z,98825.59
2018-06-23T00:45:06.167Z,98824.09
2018-06-23T00:47:37.152Z,98820.62
2018-06-23T00:50:08.267Z,98829.55
2018-06-23T00:52:40.020Z,98824.60
2018-06-23T00:55:10.671Z,98822.23
2018-06-23T00:57:41.807Z,98826.02
2018-06-23T01:00:13.059Z,98822.50
2018-06-23T01:02:44.193Z,98826.11
2018-06-23T01:05:16.068Z,98826.92
2018-06-23T01:07:47.291Z,98821.13
2018-06-23T01:10:18.326Z,98823.06
2018-06-23T01:12:49.546Z,98839.75
2018-06-23T01:15:21.322Z,98832.47
2018-06-23T01:17:52.985Z,98834.61
2018-06-23T01:20:24.017Z,98847.87
2018-06-23T01:22:54.853Z,98845.72
2018-06-23T01:25:25.747Z,98850.06
2018-06-23T01:27:57.844Z,98841.30
2018-06-23T01:30:28.770Z,98843.00
2018-06-23T01:32:59.691Z,98843.81
2018-06-23T01:35:30.645Z,98841.16
2018-06-23T01:38:02.869Z,98848.33
2018-06-23T01:40:33.875Z,98852.33
2018-06-23T01:43:05.150Z,98858.44
2018-06-23T01:45:36.180Z,98856.40
2018-06-23T01:48:07.381Z,98847.91
2018-06-23T01:50:40.051Z,98856.45
2018-06-23T01:53:10.577Z,98859.16
2018-06-23T01:55:42.559Z,98861.27
2018-06-23T01:58:13.452Z,98860.22
2018-06-23T02:00:44.635Z,98856.85
2018-06-23T02:03:15.691Z,98847.55
2018-06-23T02:05:46.663Z,98852.64
2018-06-23T02:08:18.619Z,98850.98
2018-06-23T02:10:49.664Z,98851.08
2018-06-23T02:13:20.730Z,98855.02
2018-06-23T02:15:56.735Z,98855.83
2018-06-23T02:18:32.480Z,98851.67
2018-06-23T02:21:08.449Z,98850.97
2018-06-23T02:23:44.571Z,98859.20
2018-06-23T02:26:21.160Z,98855.69
2018-06-23T02:28:57.368Z,98857.59
2018-06-23T02:31:33.290Z,98856.36
2018-06-23T02:34:09.125Z,98861.77
2018-06-23T02:36:40.137Z,98866.58
2018-06-23T02:39:11.503Z,98869.34
2018-06-23T02:41:42.667Z,98872.60
2018-06-23T02:44:14.355Z,98869.44
2018-06-23T02:46:44.853Z,98872.04
2018-06-23T02:49:17.299Z,98878.89
2018-06-23T02:51:48.195Z,98869.32
2018-06-23T02:54:19.091Z,98870.48
2018-06-23T02:56:50.063Z,98874.41
2018-06-23T02:59:21.313Z,98860.28
2018-06-23T03:01:52.342Z,98853.48
2018-06-23T03:04:23.299Z,98859.60
2018-06-23T03:06:54.483Z,98854.64
2018-06-23T03:09:26.252Z,98854.95
2018-06-23T03:11:57.262Z,98854.56
2018-06-23T03:14:29.081Z,98853.20
2018-06-23T03:17:00.849Z,98859.63
2018-06-23T03:19:31.737Z,98856.75
2018-06-23T03:22:03.318Z,98859.98
2018-06-23T03:24:34.404Z,98857.63
2018-06-23T03:27:05.450Z,98872.58
2018-06-23T03:29:36.464Z,98873.47
2018-06-23T03:32:08.991Z,98883.75
2018-06-23T03:34:40.427Z,98893.32
2018-06-23T03:37:11.619Z,98892.05
2018-06-23T03:39:42.795Z,98896.20
2018-06-23T03:42:15.014Z,98896.84
2018-06-23T03:44:46.884Z,98905.69
2018-06-23T03:47:17.665Z,98905.52
2018-06-23T03:49:49.531Z,98908.33
2018-06-23T03:52:21.202Z,98906.57
2018-06-23T03:54:52.163Z,98908.94
2018-06-23T03:57:23.369Z,98908.63
2018-06-23T03:59:54.417Z,98904.70
2018-06-23T04:02:25.396Z,98908.75
2018-06-23T04:04:56.600Z,98906.31
2018-06-23T04:07:27.562Z,98910.13
2018-06-23T04:09:59.564Z,98914.72
2018-06-23T04:12:30.769Z,98918.64
2018-06-23T04:15:02.223Z,98929.56
2018-06-23T04:17:33.357Z,98933.53
2018-06-23T04:20:04.513Z,98935.86
2018-06-23T04:22:35.839Z,98928.61
2018-06-23T04:25:07.647Z,98928.78
2018-06-23T04:27:39.172Z,98925.82
2018-06-23T04:30:10.274Z,98926.86
2018-06-23T04:32:41.858Z,98928.30
2018-06-23T04:35:12.814Z,98930.34
2018-06-23T04:37:44.237Z,98924.77
2018-06-23T04:40:15.538Z,98929.61
2018-06-23T04:42:46.706Z,98928.75
2018-06-23T04:45:17.986Z,98934.23
2018-06-23T04:47:49.109Z,98930.98
2018-06-23T04:50:21.023Z,98940.66
2018-06-23T04:52:52.061Z,98939.08
2018-06-23T04:55:23.396Z,98942.11
2018-06-23T04:57:54.504Z,98945.23
2018-06-23T05:00:27.302Z,98936.13
2018-06-23T05:03:00.921Z,98947.26
2018-06-23T05:05:32.070Z,98949.98
2018-06-23T05:08:03.315Z,98950.03
2018-06-23T05:10:34.393Z,98947.86
2018-06-23T05:13:05.682Z,98946.58
2018-06-23T05:15:36.862Z,98949.27
2018-06-23T05:18:08.202Z,98957.22
2018-06-23T05:20:39.468Z,98954.13
2018-06-23T05:23:11.479Z,98957.69
2018-06-23T05:25:42.463Z,98957.89
2018-06-23T05:28:13.525Z,98960.08
2018-06-23T05:30:44.589Z,98954.30
2018-06-23T05:33:17.855Z,98959.18
2018-06-23T05:35:48.621Z,98958.88
2018-06-23T05:38:19.855Z,98954.59
2018-06-23T05:40:51.170Z,98958.92
2018-06-23T05:43:22.391Z,98955.25
2018-06-23T05:45:53.715Z,98953.61
2018-06-23T05:48:24.210Z,98955.59
2018-06-23T05:50:55.113Z,98956.28
2018-06-23T05:53:26.617Z,98961.09
2018-06-23T05:55:58.524Z,98955.62
2018-06-23T05:58:30.023Z,98959.61
2018-06-23T06:01:01.101Z,98964.53
2018-06-23T06:03:33.499Z,98956.01
2018-06-23T06:06:04.140Z,98960.13
2018-06-23T06:08:34.787Z,98966.25
2018-06-23T06:11:06.713Z,98963.44
2018-06-23T06:13:38.072Z,98958.54
2018-06-23T06:16:09.585Z,98960.70
2018-06-23T06:18:40.848Z,98962.97
2018-06-23T06:21:13.161Z,98957.05
2018-06-23T06:23:45.938Z,98970.64
2018-06-23T06:26:17.119Z,98971.80
2018-06-23T06:28:48.279Z,98966.98
2018-06-23T06:31:19.306Z,98967.27
2018-06-23T06:33:51.556Z,98966.88
2018-06-23T06:36:24.455Z,98968.05
2018-06-23T06:38:55.593Z,98966.23
2018-06-23T06:41:26.641Z,98973.42
2018-06-23T06:43:57.894Z,98976.88
2018-06-23T06:46:28.850Z,98980.31
2018-06-23T06:49:00.087Z,98977.84
2018-06-23T06:51:31.476Z,98974.43
2018-06-23T06:54:03.555Z,98977.91
2018-06-23T06:56:34.843Z,98970.81
2018-06-23T06:59:06.372Z,98979.74
2018-06-23T07:01:45.994Z,98971.69
2018-06-23T07:04:18.063Z,98970.84
2018-06-23T07:06:49.807Z,98963.30
2018-06-23T07:09:21.102Z,98967.81
2018-06-23T07:11:52.518Z,98972.66
2018-06-23T07:14:23.577Z,98976.89
2018-06-23T07:16:55.933Z,98969.75
2018-06-23T07:19:27.633Z,98964.53
2018-06-23T07:21:58.908Z,98961.48
2018-06-23T07:24:30.538Z,98962.45
2018-06-23T07:27:02.156Z,98963.89
2018-06-23T07:29:34.011Z,98967.11
2018-06-23T07:32:06.247Z,98965.09
2018-06-23T07:34:38.878Z,98964.55
2018-06-23T07:37:10.578Z,98964.78
2018-06-23T07:39:41.759Z,98971.09
2018-06-23T07:42:13.143Z,98967.84
2018-06-23T07:44:44.662Z,98974.36
2018-06-23T07:47:15.767Z,98972.56
2018-06-23T07:49:47.212Z,98977.78
2018-06-23T07:52:18.916Z,98957.12
2018-06-23T07:54:51.389Z,98968.44
2018-06-23T07:57:22.558Z,98970.94
2018-06-23T07:59:54.738Z,98962.36
2018-06-23T08:02:26.927Z,98967.09
2018-06-23T08:04:59.066Z,98965.56
2018-06-23T08:07:30.324Z,98971.03
2018-06-23T08:10:03.298Z,98969.56
2018-06-23T08:12:35.376Z,98971.45
2018-06-23T08:15:07.080Z,98969.92
2018-06-23T08:17:39.015Z,98965.05
2018-06-23T08:20:10.988Z,98968.00
2018-06-23T08:22:42.487Z,98965.05
2018-06-23T08:25:16.829Z,98963.89
2018-06-23T08:27:48.574Z,98966.28
2018-06-23T08:30:20.052Z,98963.83
2018-06-23T08:32:52.223Z,98962.31
2018-06-23T08:35:24.355Z,98962.38
2018-06-23T08:37:55.912Z,98968.94
2018-06-23T08:40:27.376Z,98972.51
2018-06-23T08:42:59.297Z,98974.09
2018-06-23T08:45:32.135Z,98967.61
2018-06-23T08:48:04.522Z,98964.16
2018-06-23T08:50:36.761Z,98958.59
2018-06-23T08:53:08.580Z,98960.81
2018-06-23T08:55:40.423Z,98958.76
2018-06-23T08:58:10.921Z,98968.58
2018-06-23T09:00:42.467Z,98972.68
2018-06-23T09:03:13.969Z,98974.53
2018-06-23T09:05:45.274Z,98970.98
2018-06-23T09:08:17.825Z,98968.98
2018-06-23T09:10:49.478Z,98982.55
2018-06-23T09:13:20.736Z,98983.47
2018-06-23T09:15:52.945Z,98972.73
2018-06-23T09:18:24.005Z,98975.98
2018-06-23T09:20:57.113Z,98979.51
2018-06-23T09:23:30.563Z,98976.77
2018-06-23T09:26:03.291Z,98973.11
2018-06-23T09:28:35.046Z,98976.09
2018-06-23T09:31:07.521Z,98984.59
2018-06-23T09:33:39.981Z,98983.73
2018-06-23T09:36:11.287Z,98986.67
2018-06-23T09:38:43.501Z,98981.66
2018-06-23T09:41:15.879Z,98974.13
2018-06-23T09:43:47.587Z,98979.03
2018-06-23T09:46:18.713Z,98974.41
2018-06-23T09:48:51.788Z,98977.11
2018-06-23T09:51:23.779Z,98977.64
2018-06-23T09:53:56.877Z,98980.61
2018-06-23T09:56:29.275Z,98978.58
2018-06-23T09:59:02.092Z,98976.67
2018-06-23T10:01:34.791Z,98977.13
2018-06-23T10:04:06.853Z,98972.78
2018-06-23T10:06:38.201Z,98964.50
2018-06-23T10:09:11.780Z,98963.34
2018-06-23T10:11:43.940Z,98957.76
2018-06-23T10:14:17.810Z,98954.34
2018-06-23T10:16:50.041Z,98952.89
2018-06-23T10:19:21.618Z,98956.65
2018-06-23T10:21:52.889Z,98955.78
2018-06-23T10:24:24.711Z,98961.34
2018-06-23T10:26:57.428Z,98961.65
2018-06-23T10:29:28.567Z,98959.47
2018-06-23T10:31:59.930Z,98966.03
2018-06-23T10:34:32.225Z,98963.83
2018-06-23T10:37:03.486Z,98963.69
2018-06-23T10:39:34.641Z,98952.88
2018-06-23T10:42:06.787Z,98961.19
2018-06-23T10:44:38.717Z,98954.75
2018-06-23T10:47:10.932Z,98954.39
2018-06-23T10:49:42.656Z,98958.59
2018-06-23T10:52:13.977Z,98962.80
2018-06-23T10:54:46.110Z,98957.44
2018-06-23T10:57:20.604Z,98959.50
2018-06-23T10:59:52.204Z,98954.11
2018-06-23T11:02:23.908Z,98953.73
2018-06-23T11:04:55.354Z,98962.29
2018-06-23T11:07:27.525Z,98961.15
2018-06-23T11:09:59.240Z,98957.62
2018-06-23T11:12:34.193Z,98947.66
2018-06-23T11:15:07.632Z,98940.06
2018-06-23T11:17:39.485Z,98945.34
2018-06-23T11:20:10.873Z,98947.83
2018-06-23T11:22:42.837Z,98949.28
2018-06-23T11:25:14.431Z,98940.57
2018-06-23T11:27:46.642Z,98927.73
2018-06-23T11:30:18.514Z,98934.43
2018-06-23T11:32:49.890Z,98935.77
2018-06-23T11:35:21.592Z,98927.13
2018-06-23T11:37:55.298Z,98923.31
2018-06-23T11:40:27.645Z,98933.92
2018-06-23T11:42:59.254Z,98929.38
2018-06-23T11:45:31.929Z,98915.67
2018-06-23T11:48:03.630Z,98926.37
2018-06-23T11:50:36.564Z,98926.09
2018-06-23T11:53:08.636Z,98922.95
2018-06-23T11:55:41.230Z,98920.16
2018-06-23T11:58:13.564Z,98922.94
2018-06-23T12:00:45.278Z,98917.20
2018-06-23T12:03:16.567Z,98913.94
2018-06-23T12:05:47.639Z,98921.42
2018-06-23T12:08:18.824Z,98921.48
2018-06-23T12:10:50.112Z,98907.69
2018-06-23T12:13:22.692Z,98910.69
2018-06-23T12:15:54.165Z,98898.54
2018-06-23T12:18:25.477Z,98898.55
2018-06-23T12:20:56.806Z,98902.22
2018-06-23T12:23:28.460Z,98904.45
2018-06-23T12:26:08.156Z,98889.27
2018-06-23T12:28:46.479Z,98894.86
2018-06-23T12:31:24.478Z,98889.53
2018-06-23T12:34:00.393Z,98880.37
2018-06-23T12:36:42.702Z,98889.23
2018-06-23T12:39:14.632Z,98878.11
2018-06-23T12:41:49.926Z,98879.50
2018-06-23T12:44:22.348Z,98871.41
2018-06-23T12:46:53.869Z,98871.98
2018-06-23T12:49:27.192Z,98865.27
2018-06-23T12:51:59.649Z,98872.42
2018-06-23T12:54:30.891Z,98871.66
2018-06-23T12:57:02.247Z,98866.06
2018-06-23T12:59:33.471Z,98865.13
2018-06-23T13:02:04.609Z,98873.98
2018-06-23T13:04:35.859Z,98878.28
2018-06-23T13:07:09.640Z,98865.02
2018-06-23T13:09:42.082Z,98863.31
2018-06-23T13:12:14.173Z,98866.34
2018-06-23T13:14:45.757Z,98868.70
2018-06-23T13:17:18.503Z,98866.45
2018-06-23T13:19:51.543Z,98869.03
2018-06-23T13:22:24.601Z,98866.97
2018-06-23T13:24:56.221Z,98866.66
2018-06-23T13:27:27.760Z,98867.63
2018-06-23T13:29:59.465Z,98875.83
2018-06-23T13:32:34.133Z,98875.75
2018-06-23T13:35:10.164Z,98868.92
2018-06-23T13:37:43.176Z,98869.66
2018-06-23T13:40:16.444Z,98867.13
2018-06-23T13:42:50.993Z,98873.16
2018-06-23T13:45:25.997Z,98866.23
2018-06-23T13:47:57.471Z,98869.47
2018-06-23T13:50:30.494Z,98870.47
2018-06-23T13:53:01.997Z,98862.16
2018-06-23T13:55:33.899Z,98855.10
2018-06-23T13:58:05.392Z,98856.16
2018-06-23T14:00:39.020Z,98860.50
2018-06-23T14:03:10.569Z,98854.70
2018-06-23T14:05:42.136Z,98852.19
2018-06-23T14:08:14.262Z,98853.97
2018-06-23T14:10:47.021Z,98849.66
2018-06-23T14:13:20.121Z,98849.61
2018-06-23T14:15:53.709Z,98840.19
2018-06-23T14:18:26.088Z,98848.22
2018-06-23T14:20:58.008Z,98830.67
2018-06-23T14:23:34.836Z,98835.42
2018-06-23T14:26:06.430Z,98832.41
2018-06-23T14:28:37.732Z,98840.20
2018-06-23T14:31:09.659Z,98835.87
2018-06-23T14:33:41.963Z,98828.83
2018-06-23T14:36:13.707Z,98833.39
2018-06-23T14:38:44.425Z,98828.36
2018-06-23T14:41:16.906Z,98825.22
2018-06-23T14:43:48.017Z,98827.13
2018-06-23T14:46:20.674Z,98825.63
2018-06-23T14:48:53.557Z,98823.82
2018-06-23T14:51:25.923Z,98826.13
2018-06-23T14:53:57.308Z,98813.37
2018-06-23T14:56:29.308Z,98823.22
2018-06-23T14:59:00.736Z,98823.01
2018-06-23T15:01:31.948Z,98817.13
2018-06-23T15:04:03.911Z,98822.11
2018-06-23T15:06:35.907Z,98816.61
2018-06-23T15:09:23.452Z,98819.42
2018-06-23T15:12:10.809Z,98819.81
2018-06-23T15:14:42.213Z,98815.45
2018-06-23T15:17:14.739Z,98810.33
2018-06-23T15:19:46.120Z,98814.02
2018-06-23T15:22:18.026Z,98807.09
2018-06-23T15:24:50.064Z,98795.80
2018-06-23T15:27:22.729Z,98797.31
2018-06-23T15:29:55.084Z,98805.33
2018-06-23T15:32:26.717Z,98801.70
2018-06-23T15:34:57.924Z,98797.90
2018-06-23T15:37:30.172Z,98793.93
2018-06-23T15:40:01.424Z,98795.38
2018-06-23T15:42:32.665Z,98799.08
2018-06-23T15:45:05.177Z,98801.65
2018-06-23T15:47:36.541Z,98793.00
2018-06-23T15:50:07.796Z,98789.20
2018-06-23T15:52:39.086Z,98791.90
2018-06-23T15:55:11.284Z,98789.44
2018-06-23T15:57:43.452Z,98799.02
2018-06-23T16:00:15.620Z,98784.58
2018-06-23T16:02:48.086Z,98790.88
2018-06-23T16:05:19.769Z,98786.23
2018-06-23T16:07:51.117Z,98792.33
2018-06-23T16:10:25.161Z,98788.76
2018-06-23T16:12:56.719Z,98786.52
2018-06-23T16:15:28.056Z,98795.77
2018-06-23T16:17:58.607Z,98798.22
2018-06-23T16:20:29.064Z,98795.53
2018-06-23T16:23:00.056Z,98796.08
2018-06-23T16:25:32.092Z,98801.88
2018-06-23T16:28:03.420Z,98793.64
2018-06-23T16:30:34.959Z,98791.81
2018-06-23T16:33:06.178Z,98798.04
2018-06-23T16:47:28.480Z,98796.75
2018-06-23T16:49:59.670Z,98796.63
2018-06-23T16:52:31.008Z,98795.30
2018-06-23T16:55:03.490Z,98795.88
2018-06-23T16:57:39.101Z,98800.94
2018-06-23T17:00:10.547Z,98800.72
2018-06-23T17:02:43.106Z,98807.08
2018-06-23T17:05:14.528Z,98806.16
2018-06-23T17:07:46.424Z,98807.14
2018-06-23T17:10:18.370Z,98818.06
2018-06-23T17:12:49.413Z,98809.30
2018-06-23T17:15:20.684Z,98816.48
2018-06-23T17:17:52.833Z,98815.34
2018-06-23T17:20:24.193Z,98811.73
2018-06-23T17:22:55.432Z,98813.48
2018-06-23T17:25:27.696Z,98815.77
2018-06-23T17:28:00.635Z,98817.13
2018-06-23T17:30:34.873Z,98817.22
2018-06-23T17:33:06.746Z,98818.59
2018-06-23T17:35:40.740Z,98824.24
2018-06-23T17:38:12.247Z,98820.55
2018-06-23T17:40:44.206Z,98828.38
2018-06-23T17:43:17.880Z,98827.22
2018-06-23T17:45:54.253Z,98830.20
2018-06-23T17:48:27.257Z,98827.73
2018-06-23T17:50:59.048Z,98824.17
2018-06-23T17:53:31.001Z,98822.63
2018-06-23T17:56:03.255Z,98830.24
2018-06-23T17:58:34.260Z,98829.69
2018-06-23T18:01:06.310Z,98830.77
2018-06-23T18:03:39.357Z,98825.84
2018-06-23T18:06:10.882Z,98828.58
2018-06-23T18:08:43.208Z,98827.35
2018-06-23T18:11:15.827Z,98835.30
2018-06-23T18:13:47.223Z,98832.67
2018-06-23T18:16:19.008Z,98836.30
2018-06-23T18:18:50.816Z,98833.66
2018-06-23T18:21:21.910Z,98833.27
2018-06-23T18:23:53.230Z,98837.45
2018-06-23T18:26:24.781Z,98836.97
2018-06-23T18:28:55.903Z,98834.69
2018-06-23T18:31:27.073Z,98835.33
2018-06-23T18:33:58.352Z,98837.00
2018-06-23T18:36:29.466Z,98839.39
2018-06-23T18:39:00.549Z,98841.65
2018-06-23T18:41:31.650Z,98840.80
2018-06-23T18:44:03.209Z,98846.95
2018-06-23T18:46:34.426Z,98836.45
2018-06-23T18:49:05.533Z,98847.22
2018-06-23T18:51:36.866Z,98848.47
2018-06-23T18:54:08.221Z,98849.56
2018-06-23T18:56:39.712Z,98846.83
2018-06-23T18:59:11.188Z,98851.16
2018-06-23T19:01:47.406Z,98852.45
2018-06-23T19:04:20.010Z,98859.60
2018-06-23T19:06:52.608Z,98858.90
2018-06-23T19:09:25.462Z,98863.66
2018-06-23T19:11:58.501Z,98868.46
2018-06-23T19:14:30.945Z,98868.58
2018-06-23T19:17:03.970Z,98872.98
2018-06-23T19:19:36.554Z,98875.55
2018-06-23T19:22:09.578Z,98882.82
2018-06-23T19:24:43.359Z,98885.22
2018-06-23T19:27:15.576Z,98889.63
2018-06-23T19:29:49.818Z,98899.14
2018-06-23T19:32:22.698Z,98902.05
2018-06-23T19:34:57.091Z,98905.74
2018-06-23T19:37:29.913Z,98920.03
2018-06-23T19:40:06.015Z,98925.55
2018-06-23T19:42:37.301Z,98921.41
2018-06-23T19:45:08.557Z,98922.92
2018-06-23T19:47:41.833Z,98928.74
2018-06-23T19:50:13.497Z,98931.23
2018-06-23T19:52:45.636Z,98932.36
2018-06-23T19:55:18.252Z,98930.55
2018-06-23T19:57:50.055Z,98935.03
2018-06-23T20:00:22.060Z,98934.02
2018-06-23T20:02:54.149Z,98941.32
2018-06-23T20:05:27.786Z,98940.34
2018-06-23T20:07:58.590Z,98941.31
2018-06-23T20:10:30.548Z,98947.59
2018-06-23T20:13:02.590Z,98956.20
2018-06-23T20:15:35.103Z,98960.33
2018-06-23T20:18:06.920Z,98966.36
2018-06-23T20:20:41.111Z,98966.66
2018-06-23T20:23:14.638Z,98965.77
2018-06-23T20:25:46.469Z,98970.98
2018-06-23T20:28:20.548Z,98976.09
2018-06-23T20:30:53.046Z,98976.66
2018-06-23T20:33:25.577Z,98973.34
2018-06-23T20:35:58.480Z,98972.67
2018-06-23T20:38:32.144Z,98973.21
2018-06-23T20:41:05.578Z,98979.16
2018-06-23T20:43:39.876Z,98975.65
2018-06-23T20:46:13.293Z,98986.86
2018-06-23T21:34:42.468Z,98993.63
2018-06-23T21:37:14.777Z,99002.84
2018-06-23T21:39:49.945Z,98997.87
2018-06-23T21:42:23.070Z,99003.35
2018-06-23T21:44:55.900Z,99000.75
2018-06-23T21:47:27.955Z,99003.40
2018-06-23T21:49:59.178Z,99002.22
2018-06-23T21:52:33.191Z,99007.75
2018-06-23T21:55:05.220Z,99015.85
2018-06-23T21:57:40.105Z,99013.36
2018-06-23T22:00:25.054Z,99016.69
2018-06-23T22:02:56.656Z,99019.97
2018-06-23T22:05:28.152Z,99025.52
2018-06-23T22:07:59.864Z,99021.51
2018-06-23T22:10:31.506Z,99024.56
2018-06-23T22:13:02.883Z,99021.39
2018-06-23T22:15:35.152Z,99019.50
2018-06-23T22:18:06.958Z,99023.34
2018-06-23T22:20:38.721Z,99026.61
2018-06-23T22:23:10.210Z,99027.72
2018-06-23T22:25:42.548Z,99033.06
2018-06-23T22:28:14.409Z,99026.82
2018-06-23T22:30:46.152Z,99031.94
2018-06-23T22:33:17.416Z,99028.22
2018-06-23T22:35:48.974Z,99032.23
2018-06-23T22:38:21.422Z,99034.18
2018-06-23T22:40:52.613Z,99029.95
2018-06-23T22:43:23.225Z,99038.09
2018-06-23T22:45:55.141Z,99040.78
2018-06-23T22:48:26.267Z,99040.86
2018-06-23T22:50:58.574Z,99043.35
2018-06-23T22:53:29.851Z,99043.75
2018-06-23T22:56:01.154Z,99049.36
2018-06-23T22:58:32.494Z,99050.84
2018-06-23T23:01:03.836Z,99047.78
2018-06-23T23:03:35.635Z,99038.73
2018-06-23T23:06:06.844Z,99042.27
2018-06-23T23:08:38.052Z,99048.16
2018-06-23T23:11:09.376Z,99040.87
2018-06-23T23:13:41.769Z,99044.28
2018-06-23T23:16:13.456Z,99029.55
2018-06-23T23:18:45.087Z,99028.02
2018-06-23T23:21:16.618Z,99015.60
2018-06-23T23:23:47.678Z,99022.52
2018-06-23T23:26:19.416Z,99021.12
2018-06-23T23:28:50.456Z,99020.58
2018-06-23T23:31:21.614Z,99019.08
2018-06-23T23:33:53.839Z,99025.89
2018-06-23T23:36:24.977Z,99024.95
2018-06-23T23:38:56.242Z,99032.95
2018-06-23T23:41:27.437Z,99032.45
2018-06-23T23:43:58.741Z,99024.01
2018-06-23T23:46:30.709Z,99031.36
2018-06-23T23:49:01.647Z,99028.33
2018-06-23T23:51:32.784Z,99031.13
2018-06-23T23:54:04.011Z,99028.03
2018-06-23T23:56:34.609Z,99034.40
2018-06-23T23:59:06.392Z,99028.47
